Alegrete, Brazil
Current Conditions -  °F | °C
As of 1:00 PM on Wednesday 26 Nov 2014 (Local Time) from SBUG Reporting Station
Scattered Clouds Scattered Clouds  
Wind Chill: 82°   Ceiling: Unl
Heat Index: 85°   Visibility: 6mi
Dew Point: 66°   Wind: 6mph
Humidity: 58%   Direction: 160°SSE
Pressure: 29.88"   Gusts: NA
Location:  29.78°S, 55.79°W
Report Text: SBUG 261500Z 16005KT 9999 SCT039 28/19 Q1012
Loading
Personal Weather Stations






























Interactive Weather Map New forecast layout! Learn more

10-Day Weather Forecast

Advertisements
Track Severe Weather on mobile